createdAt,value
2022-12-25T00:14:27.235Z,5.71
2022-12-25T00:30:09.967Z,5.52
2022-12-25T00:45:52.885Z,5.18
2022-12-25T01:01:36.081Z,4.75
2022-12-25T01:17:18.924Z,4.46
2022-12-25T01:33:01.326Z,4.21
2022-12-25T01:48:43.882Z,3.93
2022-12-25T02:04:27.119Z,3.68
2022-12-25T02:20:10.164Z,3.49
2022-12-25T02:35:52.722Z,3.32
2022-12-25T02:51:35.054Z,3.09
2022-12-25T03:07:17.858Z,2.85
2022-12-25T03:23:00.588Z,2.59
2022-12-25T03:38:43.807Z,2.31
2022-12-25T03:54:26.288Z,2.07
2022-12-25T04:10:08.936Z,1.88
2022-12-25T04:25:51.499Z,1.71
2022-12-25T04:41:34.655Z,1.54
2022-12-25T04:57:17.566Z,1.37
2022-12-25T05:13:00.268Z,1.21
2022-12-25T05:28:43.284Z,1.15
2022-12-25T05:44:26.357Z,1.15
2022-12-25T06:00:09.106Z,1.02
2022-12-25T06:15:52.288Z,0.93
2022-12-25T06:31:35.081Z,0.88
2022-12-25T06:47:17.416Z,0.78
2022-12-25T07:03:00.114Z,0.67
2022-12-25T07:18:42.545Z,0.64
2022-12-25T07:34:25.038Z,0.66
2022-12-25T07:50:08.233Z,0.81
2022-12-25T08:05:51.235Z,1
2022-12-25T08:21:34.226Z,1.17
2022-12-25T08:37:16.641Z,1.45
2022-12-25T08:52:59.279Z,1.83
2022-12-25T09:08:41.859Z,2.06
2022-12-25T09:24:24.565Z,2.19
2022-12-25T09:40:07.152Z,2.46
2022-12-25T09:55:50.013Z,2.72
2022-12-25T10:11:32.621Z,3.01
2022-12-25T10:27:14.996Z,3.58
2022-12-25T10:42:57.692Z,4.08
2022-12-25T10:58:40.408Z,4.29
2022-12-25T10:59:27.796Z,4.48
2022-12-25T11:15:10.740Z,4.48
2022-12-25T11:30:53.487Z,4.46
2022-12-25T11:46:36.382Z,4.56
2022-12-25T12:02:18.695Z,4.57
2022-12-25T12:18:01.323Z,4.63
2022-12-25T12:33:43.668Z,4.73
2022-12-25T12:49:26.111Z,4.92
2022-12-25T13:05:08.464Z,4.96
2022-12-25T13:20:51.559Z,5.15
2022-12-25T13:36:34.368Z,5.18
2022-12-25T13:52:17.038Z,5.07
2022-12-25T14:07:59.407Z,5.02
2022-12-25T14:23:42.704Z,5.02
2022-12-25T14:39:25.591Z,5.02
2022-12-25T14:55:08.320Z,5.04
2022-12-25T15:10:50.953Z,5.09
2022-12-25T15:26:33.938Z,5.12
2022-12-25T15:42:16.337Z,5.24
2022-12-25T15:57:58.878Z,5.37
2022-12-25T16:13:41.195Z,5.54
2022-12-25T16:29:24.035Z,5.68
2022-12-25T16:45:06.927Z,5.87
2022-12-25T17:00:50.067Z,6.01
2022-12-25T17:16:33.250Z,6.03
2022-12-25T17:32:16.066Z,6.08
2022-12-25T17:47:59.217Z,6.17
2022-12-25T18:03:41.945Z,6.22
2022-12-25T18:19:24.298Z,6.33
2022-12-25T18:35:06.772Z,6.35
2022-12-25T18:50:49.074Z,6.44
2022-12-25T19:06:31.949Z,6.47
2022-12-25T19:22:14.621Z,6.54
2022-12-25T19:37:57.782Z,6.61
2022-12-25T19:53:40.748Z,6.66
2022-12-25T20:09:23.320Z,6.74
2022-12-25T20:25:06.246Z,6.91
2022-12-25T20:40:49.412Z,6.98
2022-12-25T20:56:32.183Z,7.12
2022-12-25T21:12:14.813Z,7.22
2022-12-25T21:27:57.040Z,7.31
2022-12-25T21:43:39.651Z,7.36
2022-12-25T21:59:22.173Z,7.43
2022-12-25T22:15:04.480Z,7.47
2022-12-25T22:30:47.446Z,7.51
2022-12-25T22:46:29.960Z,7.56
2022-12-25T23:02:12.278Z,7.61
2022-12-25T23:17:55.173Z,7.71
2022-12-25T23:33:38.228Z,7.83
2022-12-25T23:49:20.768Z,8.06
